Главная страница
METAR-TAF:

METAR-TAF

Аэропорты :

Пекин, Китай

Шоуду

широта: 39-56N, долгота: 116-17E, высота над уровнем моря: 55 м

Текущие метеонаблюдения

Эта сводка был подготовлена 18 минут назад, в 05:30 UTC
Ветер 12 Узел от западно-северо-западный с порывами до 21 Узел, изменяющийся между западный и северно-северо-западный
Температура -3°C
Влажность 15%
Давление 1032 hPa
Видимость 10 км и более
Нет облачности ниже 1500 м, и нет кучево-дождевой облачности

METAR: ZBAA 240530Z 30006G11MPS 270V340 CAVOK M03/M26 Q1032 NOSIG

Время: 13:48 (05:48 UTC)

Прогноз

Эта сводка был подготовлена 2 часа и 28 минут назад, в 03:20 UTC
Прогноз действительный с 24-го 06 UTC до 25-го 06 UTC
Ветер 8 Узел от северо-западный
Видимость 10 км и более
Нет облачности ниже 1500 м, и нет кучево-дождевой облачности

TAF: ZBAA 240320Z 2406/2506 32004MPS CAVOK TXM04/07Z TNM13/21Z

Метеонаблюдения и прогнозы для более 4000 аэропортов (сводки METAR и TAF).

Имеющиеся станции представлены на карте желтыми и красными точками.

Чтобы увидеть название станции, наведите на нее мышь.

Затем щелкните, чтобы увидеть метеонаблюдения и метеопрогнозы.

Управление картой: чтобы увеличить масштаб, щелкните зеленые кнопки с черным крестиком; чтобы уменьшить масштаб, щелкните зеленую кнопку с тире; для просмотра соседних карт щелкайте зеленые стрелки.


METAR-TAF: